Time;durP1;ratioP1;P1;durP2;ratioP2;P2;SDS_P1;SDS_P2;PMS_P1;PMS_P2;Temp;Humidity;BMP_temperature;BMP_pressure;BME280_temperature;BME280_humidity;BME280_pressure;Samples;Min_cycle;Max_cycle;Signal;HPM_P1;HPM_P2
2022/09/12 00:01:03;;;;;;;20.38;16.48;;;;;;;16.22;98.92;101628.25;5076002;28;20040;-55
2022/09/12 00:03:31;;;;;;;20.83;16.58;;;;;;;16.23;99.04;101629.06;5065880;28;20047;-60
2022/09/12 00:05:58;;;;;;;21.77;16.83;;;;;;;16.27;98.96;101630.13;5074097;28;20044;-55
2022/09/12 00:08:26;;;;;;;19.38;15.90;;;;;;;16.28;98.80;101629.81;5068838;28;20053;-58
2022/09/12 00:10:54;;;;;;;21.40;15.75;;;;;;;16.28;98.70;101618.81;5073494;28;20483;-58
2022/09/12 00:13:21;;;;;;;27.17;15.77;;;;;;;16.26;98.29;101623.81;5074631;28;20039;-59
2022/09/12 00:15:49;;;;;;;21.95;17.27;;;;;;;16.23;98.50;101615.31;5071974;28;20097;-59
2022/09/12 00:18:17;;;;;;;20.92;16.90;;;;;;;16.18;98.76;101608.72;5075867;28;20049;-59
2022/09/12 00:20:46;;;;;;;20.02;17.17;;;;;;;16.15;99.06;101612.06;5063601;28;20040;-54
2022/09/12 00:23:14;;;;;;;18.42;15.52;;;;;;;16.12;99.59;101607.13;5061376;28;20037;-59
2022/09/12 00:25:46;;;;;;;19.00;15.95;;;;;;;16.16;99.08;101610.13;5070831;28;20037;-60
2022/09/12 00:28:15;;;;;;;20.42;16.85;;;;;;;16.14;99.15;101606.88;5061878;28;20040;-58
2022/09/12 00:30:44;;;;;;;20.92;16.80;;;;;;;16.10;99.46;101606.59;5075728;28;20036;-60
2022/09/12 00:33:13;;;;;;;22.38;16.45;;;;;;;16.06;99.29;101610.22;5069717;28;20098;-60
2022/09/12 00:35:43;;;;;;;20.80;17.13;;;;;;;16.02;99.91;101604.47;5061032;28;20045;-59
2022/09/12 00:38:11;;;;;;;18.35;15.85;;;;;;;16.01;100.00;101602.81;5060077;28;20045;-55
2022/09/12 00:40:39;;;;;;;19.40;15.48;;;;;;;16.00;99.75;101590.19;5073232;28;20075;-57
2022/09/12 00:43:29;;;;;;;23.70;16.42;;;;;;;15.97;99.89;101588.84;5069951;28;20413;-59
2022/09/12 00:46:06;;;;;;;20.30;15.38;;;;;;;15.91;100.00;101584.47;5067720;28;20503;-57
2022/09/12 00:48:41;;;;;;;20.35;14.52;;;;;;;15.90;100.00;101584.78;5061263;28;20529;-58
2022/09/12 00:51:09;;;;;;;19.52;16.70;;;;;;;15.86;100.00;101583.69;5073963;28;20425;-58
2022/09/12 00:53:38;;;;;;;18.85;15.02;;;;;;;15.81;100.00;101579.03;5062610;28;20052;-58
2022/09/12 00:56:07;;;;;;;19.70;14.75;;;;;;;15.81;100.00;101587.28;5073706;28;20101;-58
2022/09/12 00:58:43;;;;;;;30.73;16.63;;;;;;;15.87;100.00;101579.81;5057553;28;20051;-58
2022/09/12 01:01:11;;;;;;;20.70;16.05;;;;;;;15.87;100.00;101574.31;5075417;28;20033;-59
2022/09/12 01:03:39;;;;;;;18.42;15.75;;;;;;;15.87;100.00;101575.13;5073254;28;20387;-58
2022/09/12 01:06:19;;;;;;;20.42;15.07;;;;;;;15.92;100.00;101571.53;5067496;28;20383;-59
2022/09/12 01:08:47;;;;;;;21.60;15.98;;;;;;;15.92;99.41;101566.03;5073592;28;20060;-58
2022/09/12 01:11:15;;;;;;;20.98;16.10;;;;;;;15.85;99.71;101566.38;5073840;28;20498;-59
2022/09/12 01:13:44;;;;;;;20.77;16.30;;;;;;;15.81;99.71;101559.00;5068000;28;20033;-58
2022/09/12 01:16:12;;;;;;;19.25;14.85;;;;;;;15.75;99.86;101567.28;5060511;28;20102;-54
2022/09/12 01:18:49;;;;;;;18.42;13.98;;;;;;;15.74;100.00;101559.31;5074856;28;20522;-55
2022/09/12 01:21:16;;;;;;;17.20;15.10;;;;;;;15.75;100.00;101566.44;5068949;28;20105;-57
2022/09/12 01:23:47;;;;;;;21.70;15.68;;;;;;;15.73;99.83;101569.47;5073067;28;20041;-56
2022/09/12 01:26:42;;;;;;;21.13;15.32;;;;;;;15.68;100.00;101564.00;5072862;28;20102;-58
2022/09/12 01:29:15;;;;;;;16.35;14.05;;;;;;;15.62;100.00;101558.81;5074829;28;20113;-58
2022/09/12 01:31:48;;;;;;;23.00;15.65;;;;;;;15.59;100.00;101551.97;5074650;28;20048;-57
2022/09/12 01:34:26;;;;;;;20.02;14.85;;;;;;;15.57;100.00;101558.84;5070626;28;20487;-58
2022/09/12 01:37:12;;;;;;;20.45;15.50;;;;;;;15.54;100.00;101565.72;5043025;28;20048;-59
2022/09/12 01:40:15;;;;;;;18.63;14.48;;;;;;;15.53;100.00;101564.06;5074561;28;20052;-59
2022/09/12 01:42:48;;;;;;;18.65;15.05;;;;;;;15.56;100.00;101558.00;5070917;28;20056;-60
2022/09/12 01:45:39;;;;;;;20.10;15.20;;;;;;;15.56;100.00;101552.50;5070477;28;20036;-57
2022/09/12 01:48:09;;;;;;;19.52;13.95;;;;;;;15.51;100.00;101544.28;5047717;28;20040;-59
2022/09/12 01:50:46;;;;;;;21.23;15.27;;;;;;;15.47;100.00;101546.81;5060307;28;20047;-56
2022/09/12 01:53:25;;;;;;;19.45;15.15;;;;;;;15.41;100.00;101538.88;5052500;28;20043;-58
2022/09/12 01:56:07;;;;;;;20.67;14.65;;;;;;;15.36;100.00;101542.47;5064069;28;20040;-56
2022/09/12 01:58:40;;;;;;;17.33;14.50;;;;;;;15.32;100.00;101530.38;5071456;28;20150;-53
2022/09/12 02:01:28;;;;;;;19.45;15.48;;;;;;;15.29;100.00;101530.97;5056218;28;20490;-57
2022/09/12 02:04:04;;;;;;;18.50;14.00;;;;;;;15.26;100.00;101532.34;5063540;28;20056;-56
2022/09/12 02:06:34;;;;;;;;;;;;;;;15.27;100.00;101531.25;5052646;28;20513;-54
2022/09/12 02:09:12;;;;;;;16.95;13.48;;;;;;;15.28;100.00;101523.84;5069968;28;19920;-56
2022/09/12 02:11:42;;;;;;;22.05;15.27;;;;;;;15.25;100.00;101517.00;5071887;28;20510;-57
2022/09/12 02:14:23;;;;;;;20.45;14.93;;;;;;;15.21;100.00;101518.66;5067615;28;20044;-54
2022/09/12 02:17:06;;;;;;;20.58;14.27;;;;;;;15.18;100.00;101513.72;5067385;28;20114;-55
2022/09/12 02:19:39;;;;;;;15.90;12.98;;;;;;;15.18;100.00;101524.72;5062591;28;20043;-58
2022/09/12 02:22:10;;;;;;;18.17;15.25;;;;;;;15.22;100.00;101516.72;5073580;28;20116;-58
2022/09/12 02:24:41;;;;;;;18.05;15.25;;;;;;;15.23;100.00;101515.63;5069359;28;20119;-54
2022/09/12 02:27:25;;;;;;;21.08;16.00;;;;;;;15.17;100.00;101503.84;5054102;28;20058;-57
2022/09/12 02:29:53;;;;;;;18.13;14.05;;;;;;;15.13;100.00;101509.09;5054372;28;20202;-58
2022/09/12 02:32:51;;;;;;;17.92;13.25;;;;;;;15.15;100.00;101508.78;5078894;28;20088;-56
2022/09/12 02:35:47;;;;;;;15.88;12.65;;;;;;;15.20;100.00;101510.69;5060163;28;20411;-58
2022/09/12 02:38:44;;;;;;;19.85;15.85;;;;;;;15.21;100.00;101504.09;5063506;28;20094;-58
2022/09/12 02:41:14;;;;;;;18.05;15.00;;;;;;;15.18;100.00;101508.25;5070231;28;20040;-57
2022/09/12 02:43:42;;;;;;;17.45;14.07;;;;;;;15.18;100.00;101513.72;5073204;28;20048;-56
2022/09/12 02:46:16;;;;;;;18.50;15.57;;;;;;;15.21;100.00;101507.66;5057531;28;20042;-57
2022/09/12 02:48:44;;;;;;;23.35;15.75;;;;;;;15.21;100.00;101517.84;5058570;28;20045;-57
2022/09/12 02:51:12;;;;;;;18.83;14.93;;;;;;;15.18;100.00;101516.47;5072611;28;20064;-57
2022/09/12 02:53:40;;;;;;;19.70;15.13;;;;;;;15.16;100.00;101512.38;5071987;28;20118;-58
2022/09/12 02:56:13;;;;;;;17.90;14.30;;;;;;;15.17;100.00;101517.56;5068327;28;20047;-57
2022/09/12 02:58:41;;;;;;;19.23;14.90;;;;;;;15.18;100.00;101512.91;5068064;28;20037;-58
2022/09/12 03:01:17;;;;;;;18.83;15.88;;;;;;;15.19;100.00;101515.38;5045216;28;20089;-54
2022/09/12 03:04:12;;;;;;;19.40;15.15;;;;;;;15.22;100.00;101509.31;5072322;28;20052;-57
2022/09/12 03:07:01;;;;;;;23.50;16.33;;;;;;;15.22;100.00;101503.81;5072975;28;20101;-57
2022/09/12 03:09:48;;;;;;;21.15;15.68;;;;;;;15.15;100.00;101502.47;5065740;28;20436;-53
2022/09/12 03:12:28;;;;;;;20.40;16.27;;;;;;;15.09;100.00;101498.94;5071112;28;20516;-57
2022/09/12 03:15:18;;;;;;;20.48;14.88;;;;;;;15.05;100.00;101492.38;5071764;28;20051;-54
2022/09/12 03:18:07;;;;;;;20.38;16.25;;;;;;;15.04;100.00;101496.22;5072592;28;20051;-55
2022/09/12 03:21:13;;;;;;;21.30;15.10;;;;;;;14.99;100.00;101493.50;5069175;28;20117;-57
2022/09/12 03:23:43;;;;;;;21.85;14.85;;;;;;;14.96;100.00;101483.94;4992345;28;20038;-56
2022/09/12 03:26:41;;;;;;;19.15;14.77;;;;;;;14.95;100.00;101486.94;5010845;28;20455;-56
2022/09/12 03:29:10;;;;;;;22.05;17.00;;;;;;;14.95;100.00;101487.75;5051548;28;20041;-58
2022/09/12 03:31:51;;;;;;;20.95;15.90;;;;;;;14.97;100.00;101484.75;5069925;28;20040;-55
2022/09/12 03:34:19;;;;;;;18.60;14.77;;;;;;;14.97;100.00;101485.56;5073656;28;20048;-57
2022/09/12 03:36:47;;;;;;;23.50;17.00;;;;;;;15.01;100.00;101483.06;5071456;28;20052;-58
2022/09/12 03:39:15;;;;;;;20.70;16.48;;;;;;;15.03;100.00;101476.22;5054581;28;20029;-56
2022/09/12 03:41:43;;;;;;;22.52;15.98;;;;;;;15.05;100.00;101475.91;5037470;28;20090;-58
2022/09/12 03:44:11;;;;;;;24.52;17.90;;;;;;;15.08;100.00;101480.81;5071565;28;20452;-59
2022/09/12 03:46:38;;;;;;;28.63;20.65;;;;;;;15.12;100.00;101470.94;5063369;28;20051;-55
2022/09/12 03:49:06;;;;;;;26.90;20.60;;;;;;;15.11;100.00;101478.34;5066685;28;20048;-57
2022/09/12 03:51:34;;;;;;;24.58;18.95;;;;;;;15.11;100.00;101480.28;5070324;28;20381;-54
2022/09/12 03:54:01;;;;;;;27.30;19.80;;;;;;;15.13;100.00;101480.81;5069838;28;20568;-52
2022/09/12 03:56:29;;;;;;;29.13;22.25;;;;;;;15.11;100.00;101480.28;5071456;28;20041;-55
2022/09/12 03:58:57;;;;;;;28.30;20.83;;;;;;;15.06;100.00;101472.06;5069529;28;20094;-55
2022/09/12 04:01:25;;;;;;;27.67;20.65;;;;;;;15.03;100.00;101467.13;5064629;28;20498;-56
2022/09/12 04:03:53;;;;;;;27.20;20.52;;;;;;;14.99;100.00;101466.88;5070698;28;20037;-57
2022/09/12 04:06:21;;;;;;;29.38;21.80;;;;;;;15.01;100.00;101470.16;5054539;28;20045;-54
2022/09/12 04:08:53;;;;;;;37.22;22.98;;;;;;;15.02;100.00;101460.81;5059614;28;20053;-55
2022/09/12 04:11:22;;;;;;;32.25;21.80;;;;;;;14.98;100.00;101467.16;5071592;28;20054;-58
2022/09/12 04:13:49;;;;;;;28.23;22.55;;;;;;;14.91;100.00;101464.72;5042501;28;20051;-58
2022/09/12 04:16:17;;;;;;;33.90;23.15;;;;;;;14.85;100.00;101455.69;5072303;28;20049;-54
2022/09/12 04:18:45;;;;;;;25.58;20.50;;;;;;;14.83;100.00;101459.81;5069878;28;20048;-57
2022/09/12 04:21:16;;;;;;;30.10;22.85;;;;;;;14.81;100.00;101465.56;5061038;28;20499;-54
2022/09/12 04:23:47;;;;;;;29.63;22.13;;;;;;;14.82;100.00;101460.94;5064726;28;20043;-57
2022/09/12 04:26:16;;;;;;;32.53;24.10;;;;;;;14.84;100.00;101459.56;5070925;28;20154;-58
2022/09/12 04:28:45;;;;;;;32.95;22.67;;;;;;;14.88;100.00;101463.34;5066283;28;20499;-55
2022/09/12 04:31:19;;;;;;;35.00;24.08;;;;;;;14.89;100.00;101459.53;5074678;28;20040;-56
2022/09/12 04:33:54;;;;;;;32.25;23.27;;;;;;;14.88;100.00;101455.13;5073161;28;20054;-57
2022/09/12 04:36:22;;;;;;;33.20;23.30;;;;;;;14.87;100.00;101445.25;5075494;28;20053;-54
2022/09/12 04:38:51;;;;;;;34.03;22.85;;;;;;;14.87;100.00;101442.50;5063560;28;20041;-55
2022/09/12 04:41:30;;;;;;;32.03;23.30;;;;;;;14.90;100.00;101450.19;5070981;28;20048;-53
2022/09/12 04:44:03;;;;;;;31.17;22.38;;;;;;;14.94;100.00;101452.38;5074400;28;20119;-56
2022/09/12 04:46:33;;;;;;;33.58;22.70;;;;;;;14.95;100.00;101448.53;5057152;28;20036;-57
2022/09/12 04:49:01;;;;;;;38.13;23.90;;;;;;;14.93;100.00;101445.22;5064555;28;20086;-57
2022/09/12 04:51:34;;;;;;;35.50;24.90;;;;;;;14.93;100.00;101443.31;5072268;28;20041;-56
2022/09/12 04:54:05;;;;;;;33.40;23.67;;;;;;;14.96;100.00;101445.50;5060587;28;20516;-53
2022/09/12 04:56:41;;;;;;;34.85;24.60;;;;;;;14.99;100.00;101444.13;5073954;28;20045;-57
2022/09/12 04:59:10;;;;;;;35.67;24.00;;;;;;;15.01;100.00;101436.41;5071896;28;20041;-57
2022/09/12 05:01:41;;;;;;;32.05;22.33;;;;;;;15.03;100.00;101447.91;5069729;28;20041;-56
2022/09/12 05:04:10;;;;;;;31.38;23.23;;;;;;;15.06;100.00;101447.38;5073996;28;20040;-53
2022/09/12 05:06:38;;;;;;;32.13;23.02;;;;;;;15.03;100.00;101445.19;5073803;28;20043;-52
2022/09/12 05:09:07;;;;;;;34.10;23.50;;;;;;;15.04;100.00;101438.59;5072270;28;20049;-54
2022/09/12 05:11:39;;;;;;;34.10;23.48;;;;;;;15.05;100.00;101449.28;5064043;28;20040;-55
2022/09/12 05:14:27;;;;;;;29.15;20.05;;;;;;;15.08;100.00;101447.88;5070530;28;20037;-56
2022/09/12 05:16:59;;;;;;;31.15;21.15;;;;;;;15.10;100.00;101451.16;5068094;28;20418;-57
2022/09/12 05:19:28;;;;;;;32.10;22.98;;;;;;;15.08;100.00;101453.38;5067728;28;20044;-53
2022/09/12 05:21:55;;;;;;;33.70;21.80;;;;;;;15.07;100.00;101452.56;4349492;28;10000707;-56
2022/09/12 05:24:23;;;;;;;34.80;22.92;;;;;;;15.10;100.00;101451.16;5082113;28;20082;-56
2022/09/12 05:26:51;;;;;;;27.30;20.40;;;;;;;15.11;100.00;101452.84;5061725;28;20103;-57
2022/09/12 05:29:19;;;;;;;30.90;22.00;;;;;;;15.11;100.00;101447.34;5068966;28;20056;-58
2022/09/12 05:31:49;;;;;;;27.23;19.02;;;;;;;15.13;100.00;101447.88;5070242;28;20510;-58
2022/09/12 05:34:17;;;;;;;29.70;20.85;;;;;;;15.16;100.00;101444.56;5064826;28;20101;-55
2022/09/12 05:36:44;;;;;;;28.23;19.45;;;;;;;15.17;100.00;101448.94;5053476;28;20048;-56
2022/09/12 05:39:12;;;;;;;31.48;22.52;;;;;;;15.18;100.00;101447.03;5036632;28;20052;-53
2022/09/12 05:41:40;;;;;;;29.55;20.13;;;;;;;15.20;100.00;101453.88;5067832;28;20049;-57
2022/09/12 05:44:11;;;;;;;28.40;20.95;;;;;;;15.23;100.00;101449.75;5059464;28;20560;-56
2022/09/12 05:46:44;;;;;;;27.77;18.40;;;;;;;15.22;100.00;101454.41;5068250;28;20738;-53
2022/09/12 05:49:13;;;;;;;28.00;19.63;;;;;;;15.20;100.00;101448.38;5051101;28;20075;-55
2022/09/12 05:51:44;;;;;;;32.53;23.35;;;;;;;15.18;100.00;101453.34;5065421;28;20410;-54
2022/09/12 05:54:14;;;;;;;31.00;19.80;;;;;;;15.19;100.00;101454.97;5047927;28;20090;-58
2022/09/12 05:56:42;;;;;;;26.92;19.55;;;;;;;15.21;100.00;101457.44;5065011;28;20056;-55
2022/09/12 05:59:20;;;;;;;28.48;20.02;;;;;;;15.21;100.00;101452.75;5046140;28;20384;-55
2022/09/12 06:01:48;;;;;;;30.75;21.10;;;;;;;15.19;100.00;101459.66;5069133;28;20045;-53
2022/09/12 06:04:16;;;;;;;28.20;20.35;;;;;;;15.18;100.00;101452.53;5057984;28;20097;-52
2022/09/12 06:06:45;;;;;;;29.17;20.05;;;;;;;15.19;100.00;101471.44;5070724;28;20751;-55
2022/09/12 06:09:14;;;;;;;28.48;21.25;;;;;;;15.19;100.00;101467.88;5067569;28;20052;-53
2022/09/12 06:11:43;;;;;;;35.83;21.92;;;;;;;15.18;100.00;101469.81;5068963;28;20046;-56
2022/09/12 06:14:15;;;;;;;33.70;22.92;;;;;;;15.18;100.00;101467.06;5066825;28;20037;-57
2022/09/12 06:16:42;;;;;;;31.50;21.48;;;;;;;15.19;100.00;101474.19;5068009;28;20063;-54
2022/09/12 06:19:18;;;;;;;30.52;21.15;;;;;;;15.21;100.00;101474.72;5061869;28;20067;-58
2022/09/12 06:21:48;;;;;;;32.38;21.75;;;;;;;15.23;100.00;101460.72;5056687;28;20040;-54
2022/09/12 06:24:17;;;;;;;30.83;20.88;;;;;;;15.24;100.00;101468.66;5067570;28;20085;-55
2022/09/12 06:26:46;;;;;;;29.65;21.67;;;;;;;15.24;100.00;101474.16;5069431;28;20043;-55
2022/09/12 06:29:14;;;;;;;27.13;19.70;;;;;;;15.26;100.00;101466.47;5067116;28;20510;-53
2022/09/12 06:31:43;;;;;;;33.00;21.50;;;;;;;15.27;100.00;101464.53;5062103;28;20079;-54
2022/09/12 06:34:13;;;;;;;31.85;22.58;;;;;;;15.25;100.00;101459.34;5072379;28;20459;-54
2022/09/12 06:36:46;;;;;;;29.27;21.52;;;;;;;15.19;100.00;101454.97;5073710;28;20044;-58
2022/09/12 06:39:16;;;;;;;33.78;21.42;;;;;;;15.16;100.00;101457.47;5083444;28;20120;-56
2022/09/12 06:41:44;;;;;;;32.30;21.20;;;;;;;15.13;100.00;101462.41;5075407;28;20097;-57
2022/09/12 06:44:14;;;;;;;37.70;20.88;;;;;;;15.16;100.00;101457.47;5071631;28;20040;-56
2022/09/12 06:46:43;;;;;;;34.97;21.60;;;;;;;15.17;100.00;101462.66;5077525;28;20041;-54
2022/09/12 06:49:11;;;;;;;28.35;21.48;;;;;;;15.19;100.00;101465.13;5064368;28;20051;-55
2022/09/12 06:51:40;;;;;;;31.65;21.42;;;;;;;15.20;100.00;101464.88;5073694;28;20040;-52
2022/09/12 06:54:12;;;;;;;31.00;22.20;;;;;;;15.22;100.00;101457.13;5072213;28;20063;-54
2022/09/12 06:56:40;;;;;;;31.25;21.90;;;;;;;15.24;100.00;101454.13;5073003;28;20048;-50
2022/09/12 06:59:08;;;;;;;32.28;22.00;;;;;;;15.24;100.00;101460.44;5066591;28;20109;-51
2022/09/12 07:01:35;;;;;;;32.08;21.13;;;;;;;15.25;100.00;101459.34;5073133;28;20041;-52
2022/09/12 07:04:04;;;;;;;29.60;21.38;;;;;;;15.27;100.00;101461.78;5071949;28;20044;-52
2022/09/12 07:06:36;;;;;;;33.33;22.40;;;;;;;15.29;100.00;101462.31;5073269;28;20097;-55
2022/09/12 07:09:06;;;;;;;32.63;22.08;;;;;;;15.30;100.00;101456.56;5069387;28;20059;-52
2022/09/12 07:11:36;;;;;;;30.08;21.33;;;;;;;15.33;100.00;101455.97;5071195;28;20033;-54
2022/09/12 07:14:05;;;;;;;28.35;18.65;;;;;;;15.37;100.00;101447.16;5071571;28;20066;-53
2022/09/12 07:16:35;;;;;;;34.42;22.30;;;;;;;15.39;100.00;101445.78;5072422;28;20033;-56
2022/09/12 07:19:05;;;;;;;27.90;21.02;;;;;;;15.40;100.00;101449.38;5063381;28;20116;-54
2022/09/12 07:21:38;;;;;;;35.53;23.40;;;;;;;15.41;100.00;101440.81;5071428;28;20040;-55
2022/09/12 07:24:08;;;;;;;30.60;21.52;;;;;;;15.43;100.00;101440.53;5071682;28;20048;-54
2022/09/12 07:26:36;;;;;;;27.27;20.67;;;;;;;15.37;100.00;101439.78;5072816;28;20093;-54
2022/09/12 07:29:04;;;;;;;29.27;20.15;;;;;;;15.34;100.00;101441.16;5052224;28;20044;-52
2022/09/12 07:31:51;;;;;;;26.35;20.40;;;;;;;15.40;100.00;101433.69;5071918;28;20044;-57
2022/09/12 07:34:19;;;;;;;28.35;20.85;;;;;;;15.43;100.00;101429.56;5071455;28;20441;-53
2022/09/12 07:36:47;;;;;;;27.33;20.45;;;;;;;15.48;100.00;101435.00;5068290;28;20052;-52
2022/09/12 07:39:14;;;;;;;26.40;19.42;;;;;;;15.51;100.00;101440.78;5062672;28;20052;-50
2022/09/12 07:41:42;;;;;;;32.00;18.40;;;;;;;15.53;100.00;101441.28;5068179;28;20048;-56
2022/09/12 07:44:10;;;;;;;26.27;20.13;;;;;;;15.59;100.00;101442.06;5071738;28;20041;-54
2022/09/12 07:46:38;;;;;;;27.40;16.42;;;;;;;15.63;100.00;101448.63;5070037;28;20033;-49
2022/09/12 07:49:06;;;;;;;25.05;16.23;;;;;;;15.73;100.00;101448.59;5058406;28;20056;-53
2022/09/12 07:51:35;;;;;;;25.60;18.48;;;;;;;15.79;100.00;101443.06;5070295;28;20041;-51
2022/09/12 07:54:08;;;;;;;25.00;17.00;;;;;;;15.82;100.00;101439.72;5072604;28;20033;-58
2022/09/12 07:56:35;;;;;;;25.20;18.30;;;;;;;15.81;100.00;101438.91;5071007;28;20041;-54
2022/09/12 07:59:06;;;;;;;27.63;19.58;;;;;;;15.82;100.00;101447.97;5061050;28;20044;-55
2022/09/12 08:01:34;;;;;;;26.52;18.58;;;;;;;15.84;100.00;101454.00;5073361;28;20105;-54
2022/09/12 08:04:03;;;;;;;24.88;17.90;;;;;;;15.85;100.00;101447.38;5075991;28;20047;-51
2022/09/12 08:06:34;;;;;;;24.52;18.88;;;;;;;15.86;100.00;101449.84;5075116;28;20051;-52
2022/09/12 08:09:05;;;;;;;25.42;18.23;;;;;;;15.88;100.00;101449.56;5076056;28;20052;-53
2022/09/12 08:11:32;;;;;;;25.98;17.83;;;;;;;15.91;100.00;101454.47;5075311;28;20047;-51
2022/09/12 08:14:01;;;;;;;22.00;16.67;;;;;;;15.94;100.00;101454.72;5075886;28;20041;-51
2022/09/12 08:16:30;;;;;;;23.08;15.75;;;;;;;15.99;100.00;101456.59;5075335;28;20054;-50
2022/09/12 08:18:59;;;;;;;23.35;17.83;;;;;;;16.01;100.00;101453.56;5074880;28;20052;-55
2022/09/12 08:21:30;;;;;;;28.27;16.25;;;;;;;16.05;100.00;101455.44;5070318;28;20062;-51
2022/09/12 08:23:59;;;;;;;25.50;16.85;;;;;;;16.07;100.00;101453.25;5074934;28;20045;-52
2022/09/12 08:26:27;;;;;;;18.88;14.73;;;;;;;16.10;100.00;101452.66;5072684;28;20032;-56
2022/09/12 08:28:55;;;;;;;25.92;17.23;;;;;;;16.13;100.00;101454.81;5072951;28;20102;-53
2022/09/12 08:31:25;;;;;;;20.95;15.00;;;;;;;16.21;100.00;101458.03;5074210;28;20047;-52
2022/09/12 08:33:56;;;;;;;19.90;13.63;;;;;;;16.25;100.00;101459.91;5070245;28;20041;-52
2022/09/12 08:36:26;;;;;;;25.40;16.55;;;;;;;16.27;100.00;101459.63;5067907;28;20048;-51
2022/09/12 08:38:58;;;;;;;18.38;12.73;;;;;;;16.32;100.00;101459.59;5074444;28;20063;-55
2022/09/12 08:41:33;;;;;;;19.50;13.43;;;;;;;16.37;100.00;101457.59;5066895;28;20041;-56
2022/09/12 08:44:29;;;;;;;21.85;14.43;;;;;;;16.40;100.00;101461.69;5062838;28;20467;-55
2022/09/12 08:47:03;;;;;;;17.42;12.38;;;;;;;16.44;100.00;101464.69;5066441;28;20041;-55
2022/09/12 08:49:38;;;;;;;22.50;17.55;;;;;;;16.47;100.00;101455.84;5066120;28;20048;-52
2022/09/12 08:52:18;;;;;;;21.33;15.47;;;;;;;16.53;100.00;101462.94;5073876;28;20586;-51
2022/09/12 08:54:46;;;;;;;22.70;14.52;;;;;;;16.59;100.00;101456.25;5073961;28;20042;-52
2022/09/12 08:57:14;;;;;;;21.38;13.10;;;;;;;16.66;100.00;101455.91;5061237;28;20093;-53
2022/09/12 08:59:44;;;;;;;23.92;19.02;;;;;;;16.68;100.00;101450.94;5074046;28;20062;-51
2022/09/12 09:02:33;;;;;;;26.00;18.80;;;;;;;16.71;100.00;101462.16;5069278;28;20033;-53
2022/09/12 09:05:24;;;;;;;17.10;12.02;;;;;;;16.79;100.00;101458.00;5073823;28;20056;-52
2022/09/12 09:08:31;;;;;;;18.75;12.55;;;;;;;16.86;100.00;101449.34;5062961;28;20106;-52
2022/09/12 09:11:09;;;;;;;23.85;16.63;;;;;;;16.87;100.00;101451.81;5073881;28;20101;-54
2022/09/12 09:16:39;;;;;;;17.67;13.38;;;;;;;16.94;100.00;101451.47;5066507;28;20063;-54
2022/09/12 09:19:13;;;;;;;17.20;12.18;;;;;;;16.99;100.00;101452.19;5074835;28;20044;-50
2022/09/12 09:21:58;;;;;;;19.85;14.85;;;;;;;17.03;100.00;101447.75;5074336;28;20050;-54
2022/09/12 09:24:39;;;;;;;20.77;16.92;;;;;;;17.09;100.00;101444.94;5051927;28;20041;-55
2022/09/12 09:27:23;;;;;;;21.15;15.40;;;;;;;17.10;100.00;101435.53;5068648;28;20048;-53
2022/09/12 09:30:15;;;;;;;14.30;10.57;;;;;;;17.14;100.00;101437.41;5064325;28;20089;-52
2022/09/12 09:32:47;;;;;;;17.95;13.95;;;;;;;17.20;100.00;101436.22;5072820;28;20101;-54
2022/09/12 09:35:44;;;;;;;14.48;10.85;;;;;;;17.24;100.00;101423.50;5055133;28;20376;-56
2022/09/12 09:38:40;;;;;;;13.80;9.85;;;;;;;17.33;99.46;101428.31;5074254;28;20101;-52
2022/09/12 09:41:36;;;;;;;17.30;13.07;;;;;;;17.40;100.00;101415.81;5053197;28;20033;-54
2022/09/12 09:44:04;;;;;;;14.68;10.00;;;;;;;17.44;99.15;101425.13;5053204;28;20037;-56
2022/09/12 09:46:32;;;;;;;11.65;6.97;;;;;;;17.46;99.09;101422.88;5064640;28;20102;-51
2022/09/12 09:49:04;;;;;;;18.23;12.75;;;;;;;17.52;100.00;101420.84;5067854;28;20040;-52
2022/09/12 09:51:37;;;;;;;18.33;12.38;;;;;;;17.59;100.00;101421.28;5073939;28;20063;-52
2022/09/12 09:54:18;;;;;;;15.82;10.85;;;;;;;17.65;100.00;101422.00;5061092;28;20033;-54
2022/09/12 09:56:46;;;;;;;13.02;9.55;;;;;;;17.71;98.32;101417.25;5069238;28;20033;-55
2022/09/12 09:59:25;;;;;;;14.27;10.02;;;;;;;17.75;98.72;101404.50;5069957;28;20040;-52
2022/09/12 10:02:02;;;;;;;17.50;11.10;;;;;;;17.78;98.31;101406.66;5073827;28;20394;-53
2022/09/12 10:04:33;;;;;;;13.27;9.45;;;;;;;17.86;97.94;101404.03;5072291;28;20048;-55
2022/09/12 10:07:20;;;;;;;15.30;9.50;;;;;;;17.92;96.67;101395.66;5071591;28;20097;-55
2022/09/12 10:10:15;;;;;;;13.07;10.13;;;;;;;17.91;96.69;101392.09;5060425;28;20063;-53
2022/09/12 10:12:43;;;;;;;11.77;8.98;;;;;;;17.94;96.66;101393.44;5058893;28;20494;-53
2022/09/12 10:15:28;;;;;;;15.02;8.18;;;;;;;17.99;95.24;101393.34;5059578;28;20049;-53
2022/09/12 10:17:57;;;;;;;14.70;11.07;;;;;;;18.00;95.31;101393.03;5069976;28;20490;-56
2022/09/12 10:20:33;;;;;;;21.77;11.05;;;;;;;18.03;94.72;101386.09;5072508;28;20057;-52
2022/09/12 10:23:22;;;;;;;28.50;12.85;;;;;;;18.08;94.39;101384.06;5060585;28;20036;-52
2022/09/12 10:25:54;;;;;;;17.88;9.77;;;;;;;18.12;93.67;101384.28;5062655;28;20056;-51
2022/09/12 10:28:44;;;;;;;21.77;10.38;;;;;;;18.16;93.58;101390.81;5073717;28;20044;-52
2022/09/12 10:31:27;;;;;;;16.80;9.27;;;;;;;18.23;92.80;101379.38;5072236;28;20085;-56
2022/09/12 10:33:57;;;;;;;13.35;9.38;;;;;;;18.25;92.26;101371.59;5070176;28;20055;-55
2022/09/12 10:36:34;;;;;;;13.77;8.18;;;;;;;18.26;92.21;101365.78;5072525;28;20624;-51
2022/09/12 10:39:03;;;;;;;15.27;8.07;;;;;;;18.35;91.96;101373.34;5072535;28;20548;-50
2022/09/12 10:41:38;;;;;;;12.02;8.00;;;;;;;18.38;91.65;101364.47;5067359;28;20037;-52
2022/09/12 10:44:09;;;;;;;15.88;8.05;;;;;;;18.42;91.16;101357.19;5066103;28;20032;-53
2022/09/12 10:46:37;;;;;;;14.50;8.70;;;;;;;18.44;90.60;101347.47;5066985;28;20047;-52
2022/09/12 10:49:39;;;;;;;15.10;7.95;;;;;;;18.46;90.82;101349.94;5059811;28;20040;-54
2022/09/12 10:52:23;;;;;;;11.73;6.82;;;;;;;18.48;90.08;101342.16;5079122;28;20037;-53
2022/09/12 10:54:51;;;;;;;15.63;7.70;;;;;;;18.54;90.21;101343.69;5075368;28;20135;-54
2022/09/12 10:57:38;;;;;;;17.05;6.82;;;;;;;18.59;90.09;101340.84;4367133;28;10000265;-55
2022/09/12 11:00:16;;;;;;;11.50;7.07;;;;;;;18.63;89.34;101336.31;5070828;28;20044;-54
2022/09/12 11:02:51;;;;;;;11.90;7.70;;;;;;;18.69;88.67;101335.09;5074136;28;20184;-53
2022/09/12 11:05:50;;;;;;;13.70;9.13;;;;;;;18.88;87.41;101331.34;5067801;28;20510;-54
2022/09/12 11:08:27;;;;;;;11.93;9.68;;;;;;;19.00;86.28;101323.38;5065755;28;20063;-56
2022/09/12 11:11:05;;;;;;;13.63;9.52;;;;;;;19.01;87.02;101313.94;5073439;28;20070;-55
2022/09/12 11:14:02;;;;;;;10.25;7.18;;;;;;;19.04;86.15;101315.25;5052632;28;20520;-56
2022/09/12 11:16:54;;;;;;;12.23;5.75;;;;;;;19.05;85.46;101317.72;5065714;28;20037;-54
2022/09/12 11:19:37;;;;;;;8.25;5.10;;;;;;;19.09;81.90;101306.84;5068213;28;20040;-55
2022/09/12 11:22:29;;;;;;;9.15;5.55;;;;;;;19.08;82.01;101311.56;5069317;28;20063;-56
2022/09/12 11:25:07;;;;;;;8.80;4.75;;;;;;;19.12;82.33;101308.97;5068420;28;20051;-56
2022/09/12 11:28:15;;;;;;;11.10;5.15;;;;;;;19.16;82.85;101308.03;5062936;28;20037;-54
2022/09/12 11:31:01;;;;;;;10.27;5.43;;;;;;;19.20;82.04;101307.41;5052391;28;20052;-55
2022/09/12 11:33:42;;;;;;;10.07;5.30;;;;;;;19.23;79.93;101313.13;5073872;28;20060;-52
2022/09/12 11:36:33;;;;;;;9.23;4.75;;;;;;;19.30;81.84;101307.16;5072800;28;20092;-54
2022/09/12 11:39:10;;;;;;;10.13;5.47;;;;;;;19.36;77.98;101305.88;5071596;28;20121;-52